Achkanis, Turkey

2:14 PM +03 on November 23, 2017 (GMT +0300)
Van | | Change Station

Elev 5453 ft 38.45 °N, 43.32 °E | Updated 24 minutes ago

Snow
Snow
39 °F
Feels Like 31 °F
N
14
Wind Variable Wind from SW

Today
High -- | Low -- °F
--% Chance of Precip.
Yesterday
High -- | Low -- °F
Precip. -- in
Pressure 29.89 in
Visibility 6.2 miles
Clouds Scattered Clouds 3000 ft
Mostly Cloudy 7000 ft
Windchill 31 °F
Dew Point 12 °F
Humidity 33%
Rainfall 0.00 in
Snow Depth Not available.
6:57 AM 4:52 PM
Waxing Crescent, 21% visible
METAR LTCI 231050Z 23012KT 9999 SCT030 BKN070 04/M11 Q1012 R032///48 NOSIG
Pressure 29.89 in
Visibility 6.2 miles
Clouds Scattered Clouds 3000 ft
Mostly Cloudy 7000 ft
Windchill 31 °F
Dew Point 12 °F
Humidity 33%
Rainfall 0.00 in
Snow Depth Not available.
6:57 AM 4:52 PM
Waxing Crescent, 21% visible
METAR LTCI 231050Z 23012KT 9999 SCT030 BKN070 04/M11 Q1012 R032///48 NOSIG

Get Severe Weather Alerts

Thanks for signing up!

Be on the lookout for a verification email in your inbox.

You'll start receiving the daily forecast at 6 AM.

×

10-Day Weather Forecast

×

Almanac

Astronomy

Nov. 23, 2017 Rise Set
Actual Time
Civil Twilight
Nautical Twilight
Astronomical Twilight
Moon
Length of Visible Light
Length of Day
Tomorrow will be .
, % of the Moon is Illuminated

Today's Extremes

Country Highs Country Lows

Community

WunderPhotos

Category 6

Welcome to Category 6. This is the collective home for Weather Underground's featured writeups by Dr. Jeff Masters (right), Bob Henson (left), Chris Burt, and other regular contributors.

Nearby

Air Quality

  Air Quality AQ Index Pollutant
Not available.

Snow Depth

Station Depth Elevation

Earthquake Activity

City Distance Mag. Time & Date
Minimum magnitude displayed is 2.5.

Coastal Water Temperatures

Place Temperature

Stations

Nearby Weather Stations

Station Location Temp. Windchill Dew Point Humidity Wind Precip. Elev Updated Type